Time;durP1;ratioP1;P1;durP2;ratioP2;P2;SDS_P1;SDS_P2;PMS_P1;PMS_P2;Temp;Humidity;BMP_temperature;BMP_pressure;BME280_temperature;BME280_humidity;BME280_pressure;Samples;Min_cycle;Max_cycle;Signal;HPM_P1;HPM_P2
2022/12/24 00:00:41;;;;;;;7.35;6.65;;;3.50;99.90;;;;;;5059630;28;20356;-76
2022/12/24 00:03:10;;;;;;;7.65;7.05;;;3.60;99.90;;;;;;5062457;28;20222;-76
2022/12/24 00:05:38;;;;;;;6.80;6.30;;;3.60;99.90;;;;;;5066897;28;20221;-78
2022/12/24 00:08:07;;;;;;;7.45;6.85;;;3.60;99.90;;;;;;5062177;28;20199;-76
2022/12/24 00:10:34;;;;;;;6.78;6.18;;;3.70;99.90;;;;;;5064890;28;20232;-76
2022/12/24 00:13:01;;;;;;;7.20;6.60;;;3.70;99.90;;;;;;5061435;28;20218;-75
2022/12/24 00:15:29;;;;;;;6.95;6.35;;;3.70;99.90;;;;;;5048740;28;20219;-79
2022/12/24 00:17:56;;;;;;;6.85;6.25;;;3.70;99.90;;;;;;5048391;28;20709;-74
2022/12/24 00:20:26;;;;;;;6.18;5.78;;;3.70;99.90;;;;;;5059754;28;20219;-76
2022/12/24 00:22:53;;;;;;;6.38;5.88;;;3.70;99.90;;;;;;5045683;28;20198;-77
2022/12/24 00:25:20;;;;;;;6.28;5.78;;;3.70;99.90;;;;;;5066110;28;20225;-80
2022/12/24 00:27:48;;;;;;;6.97;6.47;;;3.70;99.90;;;;;;5062925;28;20254;-76
2022/12/24 00:30:15;;;;;;;6.57;6.07;;;3.70;99.90;;;;;;5064289;28;20275;-78
2022/12/24 00:32:43;;;;;;;6.72;6.13;;;3.80;99.90;;;;;;5061070;28;22579;-74
2022/12/24 00:35:10;;;;;;;7.07;6.47;;;3.80;99.90;;;;;;5066104;28;20218;-79
2022/12/24 00:37:40;;;;;;;7.18;6.57;;;3.80;99.90;;;;;;5065529;28;20202;-76
2022/12/24 00:40:09;;;;;;;7.28;6.30;;;3.80;99.90;;;;;;5062006;28;20214;-77
2022/12/24 00:42:37;;;;;;;6.90;6.30;;;3.70;99.90;;;;;;5063888;28;20686;-75
2022/12/24 00:45:06;;;;;;;6.97;6.18;;;3.70;99.90;;;;;;5065502;28;20632;-80
2022/12/24 00:47:34;;;;;;;6.82;6.32;;;3.70;99.90;;;;;;5064469;28;20198;-78
2022/12/24 00:50:01;;;;;;;6.47;5.97;;;3.70;99.90;;;;;;5042495;28;20210;-78
2022/12/24 00:52:28;;;;;;;6.53;6.00;;;3.70;99.90;;;;;;5061651;28;20251;-77
2022/12/24 00:54:57;;;;;;;6.25;5.75;;;3.70;99.90;;;;;;5045791;28;20214;-79
2022/12/24 00:57:25;;;;;;;5.85;5.35;;;3.70;99.90;;;;;;5069144;28;20217;-78
2022/12/24 00:59:52;;;;;;;6.43;5.93;;;3.70;99.90;;;;;;5063214;28;20213;-77
2022/12/24 01:02:19;;;;;;;6.55;5.95;;;3.60;99.90;;;;;;5062644;28;20284;-81
2022/12/24 01:07:31;;;;;;;7.25;6.65;;;3.60;99.90;;;;;;5060237;28;20209;-79
2022/12/24 01:10:00;;;;;;;6.30;5.80;;;3.60;99.90;;;;;;5063860;28;20234;-77
2022/12/24 01:12:28;;;;;;;6.05;5.60;;;3.50;99.90;;;;;;5058356;28;20206;-75
2022/12/24 01:14:56;;;;;;;6.97;6.38;;;3.60;99.90;;;;;;5064936;28;21506;-78
2022/12/24 01:17:24;;;;;;;7.32;6.63;;;3.60;99.90;;;;;;5048143;28;20194;-75
2022/12/24 01:19:52;;;;;;;6.40;5.90;;;3.60;99.90;;;;;;5063495;28;20214;-74
2022/12/24 01:22:19;;;;;;;6.88;6.28;;;3.60;99.90;;;;;;5065633;28;20206;-76
2022/12/24 01:24:47;;;;;;;6.05;5.55;;;3.60;99.90;;;;;;5058588;28;20214;-79
2022/12/24 01:27:15;;;;;;;6.40;5.90;;;3.60;99.90;;;;;;5065930;28;20199;-74
2022/12/24 01:29:44;;;;;;;5.45;5.05;;;3.60;99.90;;;;;;5058410;28;20218;-74
2022/12/24 01:32:11;;;;;;;5.43;5.03;;;3.60;99.90;;;;;;5061708;28;20993;-80
2022/12/24 01:34:39;;;;;;;5.68;5.18;;;3.60;99.90;;;;;;5061228;28;20210;-72
2022/12/24 01:37:07;;;;;;;6.13;5.72;;;3.60;99.90;;;;;;5069676;28;20704;-81
2022/12/24 01:39:34;;;;;;;5.38;4.95;;;3.60;99.90;;;;;;5063344;28;20223;-81
2022/12/24 01:44:52;;;;;;;6.03;5.53;;;3.60;99.90;;;;;;5063237;28;20229;-76
2022/12/24 01:47:23;;;;;;;6.28;5.78;;;3.60;99.90;;;;;;5068912;28;20203;-76
2022/12/24 01:49:54;;;;;;;6.28;5.78;;;3.60;99.90;;;;;;5066328;28;20231;-81
2022/12/24 01:52:24;;;;;;;6.95;6.25;;;3.60;99.90;;;;;;5066960;28;20245;-77
2022/12/24 01:54:56;;;;;;;6.40;5.90;;;3.50;99.90;;;;;;5067244;28;20831;-75
2022/12/24 01:57:28;;;;;;;6.20;5.70;;;3.60;99.90;;;;;;5054393;28;20195;-74
2022/12/24 02:00:01;;;;;;;5.95;5.50;;;3.60;99.90;;;;;;5069409;28;20705;-77
2022/12/24 02:02:29;;;;;;;6.45;5.95;;;3.60;99.90;;;;;;5067037;28;20904;-77
2022/12/24 02:05:02;;;;;;;6.25;5.75;;;3.50;99.90;;;;;;5045481;28;20214;-74
2022/12/24 02:07:31;;;;;;;6.03;5.53;;;3.50;99.90;;;;;;5063638;28;20206;-78
2022/12/24 02:10:00;;;;;;;6.22;5.82;;;3.50;99.90;;;;;;5066519;28;20214;-77
2022/12/24 02:12:32;;;;;;;5.80;5.40;;;3.50;99.90;;;;;;5067625;28;20218;-80
2022/12/24 02:15:02;;;;;;;6.60;6.00;;;3.50;99.90;;;;;;5066708;28;20225;-79
2022/12/24 02:17:35;;;;;;;6.57;6.00;;;3.30;99.90;;;;;;5065837;28;20210;-78
2022/12/24 02:20:48;;;;;;;6.30;5.80;;;3.30;99.90;;;;;;5046723;28;20219;-79
2022/12/24 02:23:55;;;;;;;5.82;5.43;;;3.30;99.90;;;;;;5066967;28;20221;-76
2022/12/24 02:26:38;;;;;;;5.40;5.03;;;3.20;99.90;;;;;;5063389;28;20215;-73
2022/12/24 02:29:22;;;;;;;5.80;5.40;;;3.20;99.90;;;;;;5067494;28;20214;-78
2022/12/24 02:31:56;;;;;;;5.93;5.53;;;3.20;99.90;;;;;;5069726;28;20701;-78
2022/12/24 02:34:30;;;;;;;5.80;5.40;;;3.20;99.90;;;;;;5049414;28;20210;-78
2022/12/24 02:37:04;;;;;;;5.90;5.40;;;3.20;99.90;;;;;;5066445;28;20208;-73
2022/12/24 02:39:37;;;;;;;6.45;5.95;;;3.20;99.90;;;;;;5064060;28;20217;-81
2022/12/24 02:42:06;;;;;;;6.35;5.75;;;3.30;99.90;;;;;;5065330;28;20663;-79
2022/12/24 02:44:39;;;;;;;6.20;5.70;;;3.30;99.90;;;;;;5065915;28;20214;-74
2022/12/24 02:47:10;;;;;;;5.95;5.55;;;3.30;99.90;;;;;;5067937;28;20203;-76
2022/12/24 02:49:38;;;;;;;5.88;5.38;;;3.20;99.90;;;;;;5064374;28;20210;-80
2022/12/24 02:52:05;;;;;;;6.88;6.22;;;3.20;99.90;;;;;;5065783;28;20199;-75
2022/12/24 02:54:33;;;;;;;6.93;6.30;;;3.20;99.90;;;;;;5068156;28;20221;-79
2022/12/24 02:57:20;;;;;;;6.63;6.13;;;3.20;99.90;;;;;;5064154;28;20286;-79
2022/12/24 03:00:00;;;;;;;6.78;6.28;;;3.20;99.90;;;;;;5062570;28;20221;-79
2022/12/24 03:02:45;;;;;;;7.57;6.90;;;3.20;99.90;;;;;;5070804;28;20333;-80
2022/12/24 03:05:20;;;;;;;7.57;6.88;;;3.20;99.90;;;;;;5064208;28;20215;-75
2022/12/24 03:07:57;;;;;;;7.13;6.50;;;3.20;99.90;;;;;;5052063;28;20189;-72
2022/12/24 03:10:35;;;;;;;6.80;6.20;;;3.10;99.90;;;;;;5063817;28;20554;-78
2022/12/24 03:13:07;;;;;;;7.47;6.88;;;3.10;99.90;;;;;;5064802;28;20210;-72
2022/12/24 03:15:38;;;;;;;6.22;5.72;;;3.00;99.90;;;;;;5046701;28;20264;-78
2022/12/24 03:18:16;;;;;;;6.28;5.78;;;3.00;99.90;;;;;;5062932;28;20213;-80
2022/12/24 03:20:46;;;;;;;6.82;6.20;;;3.10;99.90;;;;;;5066522;28;20222;-81
2022/12/24 03:23:14;;;;;;;6.57;6.07;;;3.10;99.90;;;;;;5062481;28;20222;-80
2022/12/24 03:25:44;;;;;;;6.47;5.97;;;3.10;99.90;;;;;;5047221;28;20218;-77
2022/12/24 03:28:14;;;;;;;6.22;5.80;;;3.10;99.90;;;;;;5065032;28;20195;-77
2022/12/24 03:30:43;;;;;;;6.30;5.80;;;3.10;99.90;;;;;;5047014;28;20249;-74
2022/12/24 03:33:13;;;;;;;6.32;5.82;;;3.10;99.90;;;;;;5048303;28;20663;-79
2022/12/24 03:35:40;;;;;;;6.10;5.60;;;3.10;99.90;;;;;;5066092;28;20210;-75
2022/12/24 03:38:08;;;;;;;6.10;5.65;;;3.10;99.90;;;;;;5063920;28;20655;-78
2022/12/24 03:40:35;;;;;;;5.97;5.57;;;3.00;99.90;;;;;;5062074;28;20214;-74
2022/12/24 03:43:02;;;;;;;6.20;5.70;;;3.00;99.90;;;;;;5065454;28;20235;-78
2022/12/24 03:45:30;;;;;;;6.72;6.20;;;3.00;99.90;;;;;;5065663;28;20233;-75
2022/12/24 03:47:58;;;;;;;6.97;6.38;;;3.00;99.90;;;;;;5049536;28;20537;-80
2022/12/24 03:50:27;;;;;;;7.47;6.85;;;3.00;99.90;;;;;;5059406;28;20210;-77
2022/12/24 03:52:55;;;;;;;7.10;6.50;;;2.90;99.90;;;;;;5060486;28;20210;-76
2022/12/24 03:55:25;;;;;;;7.57;6.97;;;2.80;99.90;;;;;;5045493;28;20244;-73
2022/12/24 03:57:52;;;;;;;7.20;6.50;;;2.70;99.90;;;;;;5054096;28;20612;-80
2022/12/24 04:00:20;;;;;;;7.43;6.82;;;2.70;99.90;;;;;;5062639;28;20226;-77
2022/12/24 04:02:48;;;;;;;6.93;6.32;;;2.60;99.90;;;;;;5065052;28;20197;-78
2022/12/24 04:05:17;;;;;;;7.15;6.55;;;2.60;99.90;;;;;;5062916;28;20221;-78
2022/12/24 04:07:46;;;;;;;7.38;6.78;;;2.60;99.90;;;;;;5065234;28;20202;-77
2022/12/24 04:10:15;;;;;;;7.22;6.63;;;2.60;99.90;;;;;;5062672;28;20260;-80
2022/12/24 04:12:44;;;;;;;6.50;6.00;;;2.60;99.90;;;;;;5060999;28;20716;-78
2022/12/24 04:15:12;;;;;;;6.75;6.10;;;2.60;99.90;;;;;;5062833;28;20225;-77
2022/12/24 04:17:39;;;;;;;6.95;6.35;;;2.60;99.90;;;;;;5061795;28;20191;-73
2022/12/24 04:20:08;;;;;;;6.28;5.60;;;2.70;99.90;;;;;;5059477;28;20221;-76
2022/12/24 04:22:36;;;;;;;6.35;5.85;;;2.70;99.90;;;;;;5061609;28;20202;-74
2022/12/24 04:25:07;;;;;;;6.40;5.82;;;2.70;99.90;;;;;;5061269;28;20237;-77
2022/12/24 04:27:37;;;;;;;5.38;4.97;;;2.80;99.90;;;;;;5058181;28;20578;-76
2022/12/24 04:30:06;;;;;;;6.60;6.10;;;2.80;99.90;;;;;;5044879;28;20725;-74
2022/12/24 04:32:33;;;;;;;5.72;5.32;;;2.80;99.90;;;;;;5061006;28;20198;-75
2022/12/24 04:35:01;;;;;;;5.95;5.55;;;2.90;99.90;;;;;;5063164;28;20213;-76
2022/12/24 04:37:28;;;;;;;6.97;6.40;;;2.90;99.90;;;;;;5059655;28;21224;-79
2022/12/24 04:39:55;;;;;;;6.47;5.97;;;2.90;99.90;;;;;;5062636;28;20554;-78
2022/12/24 04:42:24;;;;;;;6.25;5.85;;;2.90;99.90;;;;;;5067051;28;20199;-78
2022/12/24 04:44:52;;;;;;;6.47;5.97;;;2.80;99.90;;;;;;5046995;28;20218;-74
2022/12/24 04:47:20;;;;;;;6.18;5.70;;;2.80;99.90;;;;;;5067607;28;20552;-72
2022/12/24 04:49:47;;;;;;;6.32;5.82;;;2.80;99.90;;;;;;5062178;28;20723;-77
2022/12/24 04:52:14;;;;;;;7.15;6.55;;;2.80;99.90;;;;;;5061356;28;20210;-76
2022/12/24 04:54:42;;;;;;;6.47;5.97;;;2.80;99.90;;;;;;5060570;28;20703;-79
2022/12/24 04:57:10;;;;;;;5.97;5.57;;;2.80;99.90;;;;;;5063187;28;20202;-78
2022/12/24 04:59:39;;;;;;;6.50;6.00;;;2.80;99.90;;;;;;5060899;28;20625;-81
2022/12/24 05:02:06;;;;;;;7.05;6.50;;;2.80;99.90;;;;;;5065041;28;20596;-80
2022/12/24 05:04:35;;;;;;;6.32;5.93;;;2.80;99.90;;;;;;5062975;28;20231;-73
2022/12/24 05:07:02;;;;;;;6.60;6.10;;;2.80;99.90;;;;;;5061099;28;20222;-79
2022/12/24 05:09:29;;;;;;;6.75;6.25;;;2.80;99.90;;;;;;5066105;28;20218;-78
2022/12/24 05:11:59;;;;;;;6.75;6.25;;;2.80;99.90;;;;;;5061081;28;20275;-77
2022/12/24 05:14:26;;;;;;;6.15;5.65;;;2.80;99.90;;;;;;5063797;28;20221;-76
2022/12/24 05:16:55;;;;;;;6.40;5.90;;;2.80;99.90;;;;;;5063858;28;20186;-78
2022/12/24 05:19:22;;;;;;;6.78;6.28;;;2.80;99.90;;;;;;5066503;28;20221;-75
2022/12/24 05:26:20;;;;;;;5.93;5.47;;;2.80;99.90;;;;;;5047170;28;20209;-77
2022/12/24 05:27:25;;;;;;;6.32;5.75;;;2.80;99.90;;;;;;5037901;28;20328;-80
2022/12/24 05:29:52;;;;;;;7.18;6.55;;;2.80;99.90;;;;;;5066781;28;20218;-74
2022/12/24 05:32:21;;;;;;;6.40;5.90;;;2.90;99.90;;;;;;5070327;28;20295;-77
2022/12/24 05:34:48;;;;;;;6.15;5.65;;;2.90;99.90;;;;;;5061871;28;20230;-74
2022/12/24 05:37:16;;;;;;;6.57;6.05;;;2.80;99.90;;;;;;5067929;28;20198;-73
2022/12/24 05:39:45;;;;;;;6.38;5.88;;;2.90;99.90;;;;;;5071330;28;20210;-79
2022/12/24 05:42:12;;;;;;;6.88;6.38;;;2.80;99.90;;;;;;5063920;28;20203;-76
2022/12/24 05:44:40;;;;;;;6.70;6.10;;;2.80;99.90;;;;;;5060249;28;20700;-75
2022/12/24 05:47:07;;;;;;;6.70;6.10;;;2.80;99.90;;;;;;5066762;28;20218;-80
2022/12/24 05:49:36;;;;;;;7.50;6.82;;;2.70;99.90;;;;;;5064843;28;20615;-78
2022/12/24 05:52:03;;;;;;;6.57;6.07;;;2.70;99.90;;;;;;5050352;28;20194;-74
2022/12/24 05:54:31;;;;;;;6.90;6.30;;;2.70;99.90;;;;;;5063473;28;20229;-73
2022/12/24 05:56:58;;;;;;;7.03;6.53;;;2.70;99.90;;;;;;5062982;28;21227;-76
2022/12/24 05:59:26;;;;;;;6.70;6.20;;;2.70;99.90;;;;;;5045697;28;20275;-77
2022/12/24 06:01:53;;;;;;;7.10;6.40;;;2.70;99.90;;;;;;5048352;28;20194;-78
2022/12/24 06:04:21;;;;;;;6.50;5.93;;;2.60;99.90;;;;;;5048818;28;20698;-79
2022/12/24 06:06:49;;;;;;;6.72;6.22;;;2.60;99.90;;;;;;5049123;28;20226;-76
2022/12/24 06:09:17;;;;;;;6.07;5.68;;;2.60;99.90;;;;;;5068464;28;20305;-77
2022/12/24 06:11:44;;;;;;;6.53;6.07;;;2.60;99.90;;;;;;5069563;28;20607;-81
2022/12/24 06:14:12;;;;;;;7.72;7.07;;;2.60;99.90;;;;;;5054845;28;20291;-73
2022/12/24 06:16:39;;;;;;;6.80;6.22;;;3.00;99.90;;;;;;5067302;28;20667;-77
2022/12/24 06:19:09;;;;;;;9.70;8.27;;;3.30;99.90;;;;;;5062073;28;20221;-73
2022/12/24 06:21:36;;;;;;;6.93;6.32;;;3.30;99.90;;;;;;5065370;28;20199;-73
2022/12/24 06:24:07;;;;;;;6.10;5.60;;;3.20;99.90;;;;;;5063202;28;20308;-79
2022/12/24 06:26:34;;;;;;;6.50;5.93;;;3.10;99.90;;;;;;5066415;28;20226;-78
2022/12/24 06:29:02;;;;;;;6.55;6.03;;;3.00;99.90;;;;;;5061289;28;20284;-76
2022/12/24 06:31:29;;;;;;;6.60;6.10;;;2.90;99.90;;;;;;5058938;28;20656;-74
2022/12/24 06:33:56;;;;;;;5.88;5.47;;;2.90;99.90;;;;;;5057495;28;20253;-81
2022/12/24 06:36:25;;;;;;;6.63;6.03;;;2.80;99.90;;;;;;5060708;28;20197;-77
2022/12/24 06:38:54;;;;;;;5.72;5.32;;;2.90;99.90;;;;;;5069282;28;20215;-80
2022/12/24 06:41:24;;;;;;;6.15;5.65;;;2.90;99.90;;;;;;5063067;28;20268;-78
2022/12/24 06:43:53;;;;;;;6.70;6.20;;;2.90;99.90;;;;;;5063523;28;20219;-74
2022/12/24 06:46:21;;;;;;;6.35;5.88;;;2.90;99.90;;;;;;5067347;28;20217;-74
2022/12/24 06:48:50;;;;;;;6.72;6.22;;;2.90;99.90;;;;;;5063901;28;20218;-78
2022/12/24 06:51:19;;;;;;;6.72;6.22;;;2.90;99.90;;;;;;5063377;28;20317;-75
2022/12/24 06:53:47;;;;;;;6.38;5.88;;;3.00;99.90;;;;;;5061529;28;20711;-73
2022/12/24 06:56:16;;;;;;;8.05;7.22;;;3.00;99.90;;;;;;5061612;28;20569;-77
2022/12/24 06:58:45;;;;;;;7.18;6.57;;;3.00;99.90;;;;;;5047256;28;20218;-76
2022/12/24 07:01:14;;;;;;;6.22;5.72;;;2.90;99.90;;;;;;5061381;28;20194;-76
2022/12/24 07:03:42;;;;;;;6.45;5.95;;;2.90;99.90;;;;;;5065426;28;20294;-77
2022/12/24 07:06:16;;;;;;;6.90;6.30;;;3.00;99.90;;;;;;5059383;28;20696;-77
2022/12/24 07:08:44;;;;;;;6.20;5.65;;;3.00;99.90;;;;;;5046103;28;20217;-76
2022/12/24 07:11:11;;;;;;;6.80;6.28;;;3.10;99.90;;;;;;5063659;28;20199;-75
2022/12/24 07:13:41;;;;;;;6.53;6.00;;;3.00;99.90;;;;;;5065017;28;20225;-76
2022/12/24 07:16:10;;;;;;;7.10;6.43;;;3.00;99.90;;;;;;5063383;28;20195;-74
2022/12/24 07:18:38;;;;;;;7.68;7.07;;;3.00;99.90;;;;;;5029891;28;20223;-72
2022/12/24 07:21:06;;;;;;;8.07;7.47;;;2.90;99.90;;;;;;5042877;28;20256;-77
2022/12/24 07:23:34;;;;;;;8.27;7.57;;;2.90;99.90;;;;;;5048160;28;20221;-72
2022/12/24 07:26:02;;;;;;;7.70;7.10;;;2.90;99.90;;;;;;5061474;28;20631;-77
2022/12/24 07:28:30;;;;;;;8.77;7.95;;;2.80;99.90;;;;;;5049374;28;20218;-75
2022/12/24 07:30:58;;;;;;;7.45;6.85;;;2.80;99.90;;;;;;5065365;28;20197;-76
2022/12/24 07:33:27;;;;;;;7.13;6.55;;;2.80;99.90;;;;;;5063721;28;20221;-77
2022/12/24 07:36:03;;;;;;;7.28;6.68;;;2.80;99.90;;;;;;5050049;28;20615;-78
2022/12/24 07:38:30;;;;;;;6.05;5.55;;;2.90;99.90;;;;;;5058685;28;20194;-77
2022/12/24 07:40:58;;;;;;;6.22;5.80;;;2.90;99.90;;;;;;5062485;28;20198;-74
2022/12/24 07:43:26;;;;;;;6.05;5.55;;;3.00;99.90;;;;;;5046967;28;20240;-77
2022/12/24 07:45:56;;;;;;;7.22;6.63;;;3.10;99.90;;;;;;5064892;28;20221;-79
2022/12/24 07:48:24;;;;;;;6.18;5.70;;;3.20;99.90;;;;;;5063226;28;20313;-74
2022/12/24 07:50:53;;;;;;;6.40;5.90;;;3.20;99.90;;;;;;5059363;28;20198;-74
2022/12/24 07:53:20;;;;;;;5.97;5.57;;;3.20;99.90;;;;;;5061022;28;20218;-72
2022/12/24 07:55:48;;;;;;;6.32;5.82;;;3.30;99.90;;;;;;5061461;28;20202;-76
2022/12/24 07:58:15;;;;;;;6.35;5.85;;;3.30;99.90;;;;;;5056659;28;20198;-74
2022/12/24 08:00:42;;;;;;;6.38;5.88;;;3.40;99.90;;;;;;5055330;28;20221;-74
2022/12/24 08:03:16;;;;;;;6.15;5.65;;;3.50;99.90;;;;;;5059722;28;20254;-76
2022/12/24 08:05:43;;;;;;;6.25;5.75;;;3.60;99.90;;;;;;5060564;28;20218;-77
2022/12/24 08:08:13;;;;;;;6.47;6.03;;;3.60;99.90;;;;;;5050520;28;20287;-75
2022/12/24 08:10:41;;;;;;;5.82;5.43;;;3.70;99.90;;;;;;5058348;28;20218;-75
2022/12/24 08:13:08;;;;;;;6.32;5.85;;;3.80;99.90;;;;;;5066917;28;20247;-73
2022/12/24 08:15:36;;;;;;;6.63;6.10;;;3.90;99.90;;;;;;5045648;28;20722;-77
2022/12/24 08:18:04;;;;;;;6.93;6.32;;;4.00;99.90;;;;;;5046284;28;20197;-77
2022/12/24 08:20:31;;;;;;;5.82;5.43;;;4.20;99.90;;;;;;5060594;28;20219;-73
2022/12/24 08:22:58;;;;;;;6.82;6.15;;;4.70;99.90;;;;;;5061315;28;20733;-78
2022/12/24 08:25:27;;;;;;;7.75;6.97;;;5.20;99.90;;;;;;5059460;28;21824;-77
2022/12/24 08:27:55;;;;;;;7.57;6.88;;;5.80;99.90;;;;;;5063229;28;20225;-75
2022/12/24 08:30:23;;;;;;;8.18;7.40;;;6.40;99.90;;;;;;5061595;28;20236;-73
2022/12/24 08:32:51;;;;;;;7.97;7.28;;;6.90;99.90;;;;;;5061988;28;20202;-72
2022/12/24 08:35:18;;;;;;;7.50;6.90;;;7.00;99.90;;;;;;5051941;28;20229;-73
2022/12/24 08:37:45;;;;;;;8.10;7.40;;;7.10;99.90;;;;;;5057094;28;20260;-73
2022/12/24 08:40:14;;;;;;;7.75;7.03;;;7.50;99.90;;;;;;5058568;28;20754;-73
2022/12/24 08:42:43;;;;;;;6.93;6.40;;;8.10;99.90;;;;;;5044919;28;20201;-72
2022/12/24 08:45:11;;;;;;;7.40;6.80;;;8.80;99.90;;;;;;5040401;28;20218;-73
2022/12/24 08:47:40;;;;;;;7.90;7.30;;;9.40;99.90;;;;;;5055982;28;20868;-72
2022/12/24 08:50:09;;;;;;;8.13;7.32;;;9.60;99.90;;;;;;5060788;28;20776;-72
2022/12/24 08:52:36;;;;;;;9.32;8.43;;;9.80;99.90;;;;;;5058211;28;20280;-73
2022/12/24 08:55:04;;;;;;;9.20;8.40;;;9.70;99.90;;;;;;5060542;28;20230;-74
2022/12/24 08:57:32;;;;;;;9.02;8.23;;;9.60;99.90;;;;;;5061720;28;20194;-74
2022/12/24 09:00:01;;;;;;;9.07;8.27;;;9.90;99.90;;;;;;5077006;28;20222;-75
2022/12/24 09:02:28;;;;;;;8.68;7.88;;;9.90;99.90;;;;;;5062365;28;20203;-74
2022/12/24 09:04:56;;;;;;;8.20;7.40;;;10.30;99.90;;;;;;5039972;28;20257;-75
2022/12/24 09:07:24;;;;;;;7.38;6.68;;;10.40;99.90;;;;;;5060148;28;20226;-74
2022/12/24 09:09:51;;;;;;;7.45;6.75;;;10.60;99.90;;;;;;5064959;28;20270;-74
2022/12/24 09:12:18;;;;;;;7.55;6.95;;;10.70;99.90;;;;;;5064440;28;20252;-75
2022/12/24 09:14:46;;;;;;;8.75;7.97;;;10.80;99.90;;;;;;5055108;28;20226;-74
2022/12/24 09:17:15;;;;;;;8.38;7.57;;;10.90;99.90;;;;;;5058994;28;20190;-75
2022/12/24 09:19:43;;;;;;;8.50;7.70;;;11.00;99.90;;;;;;5060030;28;20213;-74
2022/12/24 09:22:10;;;;;;;8.38;7.40;;;11.10;99.90;;;;;;5059399;28;20199;-74
2022/12/24 09:24:37;;;;;;;7.65;7.00;;;11.40;99.90;;;;;;5054755;28;20237;-75
2022/12/24 09:27:05;;;;;;;7.60;6.95;;;11.60;99.90;;;;;;5041414;28;20283;-75
2022/12/24 09:29:33;;;;;;;6.75;6.15;;;11.80;99.90;;;;;;5060255;28;20246;-74
2022/12/24 09:32:01;;;;;;;7.20;6.50;;;12.80;99.90;;;;;;5041963;28;20252;-75
2022/12/24 09:34:30;;;;;;;6.93;6.32;;;13.90;99.90;;;;;;5060776;28;20230;-76
2022/12/24 09:36:59;;;;;;;7.35;6.65;;;14.00;99.90;;;;;;5057117;28;20537;-75
2022/12/24 09:39:27;;;;;;;7.38;6.68;;;14.50;99.90;;;;;;5053498;28;20220;-76
2022/12/24 09:42:01;;;;;;;7.20;6.50;;;15.20;99.90;;;;;;5060774;28;20214;-77
2022/12/24 09:44:40;;;;;;;7.40;6.78;;;15.90;99.90;;;;;;5059267;28;20239;-75
2022/12/24 09:47:15;;;;;;;6.55;5.95;;;16.60;99.90;;;;;;5054052;28;20238;-76
2022/12/24 09:49:48;;;;;;;6.57;5.97;;;16.90;99.90;;;;;;5058231;28;20217;-79
2022/12/24 09:52:23;;;;;;;6.40;5.82;;;17.00;99.90;;;;;;5041831;28;20199;-77
2022/12/24 09:55:02;;;;;;;6.68;6.03;;;17.20;99.90;;;;;;5063875;28;20699;-78
2022/12/24 09:57:32;;;;;;;6.70;6.03;;;17.50;99.90;;;;;;5061202;28;20626;-77
2022/12/24 10:00:00;;;;;;;6.57;5.97;;;17.20;99.90;;;;;;5062264;28;20214;-78
2022/12/24 10:02:29;;;;;;;8.23;6.53;;;16.10;99.90;;;;;;5062326;28;20251;-77
2022/12/24 10:04:58;;;;;;;6.85;6.15;;;15.10;99.90;;;;;;5058533;28;22081;-79
2022/12/24 10:07:37;;;;;;;7.65;6.95;;;14.00;99.90;;;;;;5061952;28;20221;-76
2022/12/24 10:10:17;;;;;;;7.47;6.68;;;13.40;99.90;;;;;;5046242;28;20661;-77
2022/12/24 10:12:55;;;;;;;6.95;6.35;;;13.10;99.90;;;;;;5065757;28;20566;-76
2022/12/24 10:15:28;;;;;;;6.80;6.10;;;13.00;99.90;;;;;;5068290;28;20228;-76
2022/12/24 10:18:15;;;;;;;6.63;6.03;;;12.90;99.90;;;;;;5063564;28;21031;-77
2022/12/24 10:21:05;;;;;;;7.45;6.75;;;13.10;99.90;;;;;;5063137;28;20223;-75
2022/12/24 10:23:38;;;;;;;7.22;6.57;;;13.20;99.90;;;;;;5068732;28;20730;-74
2022/12/24 10:26:13;;;;;;;7.05;6.47;;;13.60;99.90;;;;;;5065902;28;20198;-75
2022/12/24 10:28:47;;;;;;;6.90;6.18;;;13.30;99.90;;;;;;5047116;28;20234;-75
2022/12/24 10:31:15;;;;;;;6.95;6.22;;;13.10;99.90;;;;;;5067997;28;20208;-75
2022/12/24 10:33:45;;;;;;;6.57;5.97;;;13.10;99.90;;;;;;5063503;28;20246;-74
2022/12/24 10:36:18;;;;;;;6.57;5.97;;;13.40;99.90;;;;;;5064353;28;20300;-76
2022/12/24 10:38:46;;;;;;;7.07;6.47;;;13.90;99.90;;;;;;5065453;28;20304;-75
2022/12/24 10:41:15;;;;;;;8.27;7.47;;;13.90;99.90;;;;;;5060469;28;20194;-76
2022/12/24 10:43:45;;;;;;;7.38;6.68;;;13.80;99.90;;;;;;5063694;28;20226;-77
2022/12/24 10:46:20;;;;;;;7.57;6.88;;;14.00;99.90;;;;;;5061617;28;20213;-78
2022/12/24 10:48:54;;;;;;;8.30;7.55;;;14.00;99.90;;;;;;5057888;28;20241;-75
2022/12/24 10:51:32;;;;;;;8.00;7.22;;;13.80;99.90;;;;;;5063074;28;20625;-77
2022/12/24 10:54:07;;;;;;;7.85;7.15;;;13.60;99.90;;;;;;5042234;28;20242;-77
2022/12/24 10:56:41;;;;;;;8.70;7.90;;;13.60;99.90;;;;;;5063235;28;20574;-77
2022/12/24 10:59:24;;;;;;;7.50;6.85;;;13.50;99.90;;;;;;5063826;28;20287;-76
2022/12/24 11:01:52;;;;;;;8.07;7.32;;;13.50;99.90;;;;;;5045439;28;20237;-77
2022/12/24 11:04:21;;;;;;;7.57;6.90;;;13.40;99.90;;;;;;5060647;28;20226;-77
2022/12/24 11:06:59;;;;;;;8.32;7.53;;;13.40;99.90;;;;;;5043237;28;20190;-80
2022/12/24 11:09:28;;;;;;;8.25;7.45;;;13.30;99.90;;;;;;5060152;28;20320;-78
2022/12/24 11:11:57;;;;;;;7.43;6.82;;;13.30;99.90;;;;;;5061077;28;20229;-80
2022/12/24 11:14:25;;;;;;;7.32;6.70;;;13.40;99.90;;;;;;5061282;28;20222;-79
2022/12/24 11:16:55;;;;;;;7.53;6.93;;;13.60;99.90;;;;;;5056728;28;20620;-80
2022/12/24 11:19:31;;;;;;;6.88;6.28;;;13.90;99.90;;;;;;5045339;28;20291;-78
2022/12/24 11:22:07;;;;;;;7.13;6.53;;;14.10;99.90;;;;;;5065054;28;20217;-81
2022/12/24 11:24:37;;;;;;;7.70;7.00;;;14.20;99.90;;;;;;5059691;28;20232;-76
2022/12/24 11:27:30;;;;;;;7.93;7.22;;;14.10;99.90;;;;;;5060833;28;20210;-81
2022/12/24 11:30:22;;;;;;;8.15;7.45;;;14.00;99.90;;;;;;5068513;28;20230;-77
2022/12/24 11:32:51;;;;;;;7.13;6.43;;;13.60;99.90;;;;;;5060624;28;20209;-78
2022/12/24 11:35:22;;;;;;;7.90;6.53;;;13.00;99.90;;;;;;5064231;28;20229;-75
2022/12/24 11:38:11;;;;;;;8.70;7.88;;;12.80;99.90;;;;;;5060617;28;20281;-76
2022/12/24 11:40:42;;;;;;;7.53;6.90;;;12.60;99.90;;;;;;5046510;28;20668;-76
2022/12/24 11:43:15;;;;;;;7.88;7.18;;;12.60;99.90;;;;;;5059628;28;20229;-76
2022/12/24 11:45:49;;;;;;;7.30;6.60;;;12.70;99.90;;;;;;5060842;28;20218;-76
2022/12/24 11:48:29;;;;;;;7.93;7.22;;;12.70;99.90;;;;;;5059899;28;20229;-78
2022/12/24 11:50:58;;;;;;;8.15;7.38;;;12.80;99.90;;;;;;5060131;28;20201;-75
2022/12/24 11:53:34;;;;;;;8.05;7.43;;;12.40;99.90;;;;;;5059588;28;20722;-75
2022/12/24 11:56:09;;;;;;;7.55;6.80;;;12.20;99.90;;;;;;5045007;28;20194;-75
2022/12/24 11:58:42;;;;;;;7.28;6.68;;;12.50;99.90;;;;;;5064038;28;20229;-75
2022/12/24 12:01:17;;;;;;;7.95;7.25;;;12.70;99.90;;;;;;5065028;28;20198;-74
2022/12/24 12:03:49;;;;;;;9.07;8.18;;;12.50;99.90;;;;;;5045997;28;20236;-76
2022/12/24 12:06:27;;;;;;;8.40;7.60;;;12.40;99.90;;;;;;5063268;28;20198;-76
2022/12/24 12:09:00;;;;;;;8.52;7.72;;;12.30;99.90;;;;;;5031708;28;20276;-74
2022/12/24 12:11:28;;;;;;;8.20;7.45;;;12.40;99.90;;;;;;5066296;28;20194;-74
2022/12/24 12:14:00;;;;;;;8.60;7.80;;;12.40;99.90;;;;;;5063115;28;20237;-75
2022/12/24 12:16:59;;;;;;;8.63;7.82;;;12.50;99.90;;;;;;5062410;28;20271;-74
2022/12/24 12:19:22;;;;;;;9.07;8.18;;;12.10;99.90;;;;;;5064801;28;20215;-75
2022/12/24 12:21:50;;;;;;;8.27;7.35;;;11.70;99.90;;;;;;5065024;28;20198;-75
2022/12/24 12:24:25;;;;;;;9.90;8.90;;;11.90;99.90;;;;;;5043058;28;20325;-76
2022/12/24 12:27:03;;;;;;;9.55;8.55;;;12.00;99.90;;;;;;5064904;28;20731;-76
2022/12/24 12:29:36;;;;;;;9.68;8.85;;;12.00;99.90;;;;;;5059848;28;20241;-75
2022/12/24 12:32:08;;;;;;;9.52;8.63;;;11.80;99.90;;;;;;5045193;28;20279;-75
2022/12/24 12:34:40;;;;;;;9.93;9.02;;;11.50;99.90;;;;;;5060806;28;20226;-76
2022/12/24 12:37:14;;;;;;;10.15;9.15;;;11.00;99.90;;;;;;5065527;28;20198;-76
2022/12/24 12:39:44;;;;;;;9.52;8.52;;;10.60;99.90;;;;;;5059936;28;20673;-76
2022/12/24 12:42:20;;;;;;;9.38;8.43;;;10.50;99.90;;;;;;5055943;28;20611;-76
2022/12/24 12:45:02;;;;;;;9.88;9.02;;;10.50;99.90;;;;;;5058918;28;22089;-76
2022/12/24 12:47:52;;;;;;;10.00;9.10;;;10.40;99.90;;;;;;5063341;28;20652;-77
2022/12/24 12:50:28;;;;;;;10.85;9.75;;;10.30;99.90;;;;;;5059380;28;20713;-80
2022/12/24 12:53:11;;;;;;;11.02;9.27;;;10.10;99.90;;;;;;5040642;28;20678;-80
2022/12/24 12:55:50;;;;;;;12.15;9.80;;;10.10;99.90;;;;;;5041198;28;20298;-75
2022/12/24 12:58:23;;;;;;;11.10;10.00;;;10.20;99.90;;;;;;5046590;28;20190;-83
2022/12/24 13:00:58;;;;;;;9.05;8.15;;;10.60;99.90;;;;;;5062903;28;20247;-78
2022/12/24 13:03:54;;;;;;;9.77;8.88;;;10.90;99.90;;;;;;5062707;28;20210;-78
2022/12/24 13:06:43;;;;;;;8.77;7.97;;;11.00;99.90;;;;;;5062713;28;20202;-75
2022/12/24 13:09:33;;;;;;;9.05;8.25;;;11.20;99.90;;;;;;5060571;28;20233;-75
2022/12/24 13:12:26;;;;;;;7.57;6.88;;;11.20;99.90;;;;;;5061530;28;20331;-75
2022/12/24 13:15:27;;;;;;;8.10;7.40;;;11.30;99.90;;;;;;5065091;28;20333;-75
2022/12/24 13:18:34;;;;;;;8.48;7.68;;;11.30;99.90;;;;;;5066286;28;20259;-75
2022/12/24 13:21:01;;;;;;;9.88;7.85;;;10.90;99.90;;;;;;5046188;28;20739;-76